sensor_id;sensor_type;location;lat;lon;timestamp;P1;durP1;ratioP1;P2;durP2;ratioP2
18082;SDS011;9168;51.194;6.840;2022-07-23T00:01:41;24.13;;;13.93;;
18082;SDS011;9168;51.194;6.840;2022-07-23T00:04:08;23.30;;;14.05;;
18082;SDS011;9168;51.194;6.840;2022-07-23T00:06:35;26.45;;;14.45;;
18082;SDS011;9168;51.194;6.840;2022-07-23T00:09:05;26.65;;;15.80;;
18082;SDS011;9168;51.194;6.840;2022-07-23T00:11:32;30.48;;;16.15;;
18082;SDS011;9168;51.194;6.840;2022-07-23T00:13:59;33.95;;;17.10;;
18082;SDS011;9168;51.194;6.840;2022-07-23T00:16:27;30.35;;;17.77;;
18082;SDS011;9168;51.194;6.840;2022-07-23T00:18:55;27.42;;;17.95;;
18082;SDS011;9168;51.194;6.840;2022-07-23T00:21:22;28.92;;;16.30;;
18082;SDS011;9168;51.194;6.840;2022-07-23T00:23:49;28.35;;;16.92;;
18082;SDS011;9168;51.194;6.840;2022-07-23T00:26:16;25.88;;;16.58;;
18082;SDS011;9168;51.194;6.840;2022-07-23T00:28:42;25.88;;;16.90;;
18082;SDS011;9168;51.194;6.840;2022-07-23T00:31:09;25.23;;;17.25;;
18082;SDS011;9168;51.194;6.840;2022-07-23T00:33:36;24.95;;;16.08;;
18082;SDS011;9168;51.194;6.840;2022-07-23T00:36:05;29.08;;;17.58;;
18082;SDS011;9168;51.194;6.840;2022-07-23T00:38:32;33.33;;;18.55;;
18082;SDS011;9168;51.194;6.840;2022-07-23T00:40:59;28.48;;;17.65;;
18082;SDS011;9168;51.194;6.840;2022-07-23T00:43:26;29.38;;;17.60;;
18082;SDS011;9168;51.194;6.840;2022-07-23T00:45:53;31.98;;;17.30;;
18082;SDS011;9168;51.194;6.840;2022-07-23T00:48:20;28.27;;;17.70;;
18082;SDS011;9168;51.194;6.840;2022-07-23T00:50:47;29.90;;;17.95;;
18082;SDS011;9168;51.194;6.840;2022-07-23T00:53:16;30.27;;;17.42;;
18082;SDS011;9168;51.194;6.840;2022-07-23T00:55:43;29.50;;;16.60;;
18082;SDS011;9168;51.194;6.840;2022-07-23T00:58:10;28.33;;;18.35;;
18082;SDS011;9168;51.194;6.840;2022-07-23T01:00:38;33.38;;;19.60;;
18082;SDS011;9168;51.194;6.840;2022-07-23T01:03:05;29.50;;;18.20;;
18082;SDS011;9168;51.194;6.840;2022-07-23T01:05:32;36.60;;;19.95;;
18082;SDS011;9168;51.194;6.840;2022-07-23T01:07:59;34.72;;;18.70;;
18082;SDS011;9168;51.194;6.840;2022-07-23T01:10:28;33.55;;;19.77;;
18082;SDS011;9168;51.194;6.840;2022-07-23T01:12:57;31.85;;;17.45;;
18082;SDS011;9168;51.194;6.840;2022-07-23T01:15:25;30.05;;;17.83;;
18082;SDS011;9168;51.194;6.840;2022-07-23T01:17:52;31.85;;;18.58;;
18082;SDS011;9168;51.194;6.840;2022-07-23T01:20:19;28.02;;;18.23;;
18082;SDS011;9168;51.194;6.840;2022-07-23T01:22:48;31.05;;;19.10;;
18082;SDS011;9168;51.194;6.840;2022-07-23T01:25:15;30.38;;;17.92;;
18082;SDS011;9168;51.194;6.840;2022-07-23T01:27:42;31.60;;;18.13;;
18082;SDS011;9168;51.194;6.840;2022-07-23T01:30:09;30.17;;;18.17;;
18082;SDS011;9168;51.194;6.840;2022-07-23T01:32:36;30.23;;;18.17;;
18082;SDS011;9168;51.194;6.840;2022-07-23T01:35:04;26.25;;;17.83;;
18082;SDS011;9168;51.194;6.840;2022-07-23T01:37:32;32.97;;;19.27;;
18082;SDS011;9168;51.194;6.840;2022-07-23T01:40:00;28.65;;;18.77;;
18082;SDS011;9168;51.194;6.840;2022-07-23T01:42:27;27.10;;;17.38;;
18082;SDS011;9168;51.194;6.840;2022-07-23T01:44:54;34.95;;;18.58;;
18082;SDS011;9168;51.194;6.840;2022-07-23T01:47:21;31.55;;;18.92;;
18082;SDS011;9168;51.194;6.840;2022-07-23T01:49:48;29.45;;;18.55;;
18082;SDS011;9168;51.194;6.840;2022-07-23T01:52:15;28.73;;;18.08;;
18082;SDS011;9168;51.194;6.840;2022-07-23T01:54:42;28.67;;;19.23;;
18082;SDS011;9168;51.194;6.840;2022-07-23T01:57:10;33.45;;;18.77;;
18082;SDS011;9168;51.194;6.840;2022-07-23T01:59:40;28.52;;;18.08;;
18082;SDS011;9168;51.194;6.840;2022-07-23T02:02:07;27.05;;;17.80;;
18082;SDS011;9168;51.194;6.840;2022-07-23T02:04:34;30.20;;;18.85;;
18082;SDS011;9168;51.194;6.840;2022-07-23T02:07:01;27.38;;;18.25;;
18082;SDS011;9168;51.194;6.840;2022-07-23T02:09:28;33.83;;;18.67;;
18082;SDS011;9168;51.194;6.840;2022-07-23T02:11:55;32.65;;;19.13;;
18082;SDS011;9168;51.194;6.840;2022-07-23T02:14:24;30.35;;;18.33;;
18082;SDS011;9168;51.194;6.840;2022-07-23T02:16:52;30.05;;;18.30;;
18082;SDS011;9168;51.194;6.840;2022-07-23T02:19:19;27.65;;;17.40;;
18082;SDS011;9168;51.194;6.840;2022-07-23T02:21:46;31.55;;;17.13;;
18082;SDS011;9168;51.194;6.840;2022-07-23T02:24:13;28.35;;;17.77;;
18082;SDS011;9168;51.194;6.840;2022-07-23T02:26:40;29.10;;;18.38;;
18082;SDS011;9168;51.194;6.840;2022-07-23T02:29:07;25.00;;;15.95;;
18082;SDS011;9168;51.194;6.840;2022-07-23T02:31:35;26.48;;;16.00;;
18082;SDS011;9168;51.194;6.840;2022-07-23T02:34:02;30.95;;;17.98;;
18082;SDS011;9168;51.194;6.840;2022-07-23T02:36:29;24.55;;;16.75;;
18082;SDS011;9168;51.194;6.840;2022-07-23T02:38:56;29.65;;;17.40;;
18082;SDS011;9168;51.194;6.840;2022-07-23T02:41:23;30.67;;;18.20;;
18082;SDS011;9168;51.194;6.840;2022-07-23T02:43:50;37.53;;;18.83;;
18082;SDS011;9168;51.194;6.840;2022-07-23T02:46:17;24.30;;;16.40;;
18082;SDS011;9168;51.194;6.840;2022-07-23T02:48:45;27.95;;;17.95;;
18082;SDS011;9168;51.194;6.840;2022-07-23T02:51:13;30.60;;;17.65;;
18082;SDS011;9168;51.194;6.840;2022-07-23T02:53:40;30.08;;;18.70;;
18082;SDS011;9168;51.194;6.840;2022-07-23T02:56:07;33.25;;;18.80;;
18082;SDS011;9168;51.194;6.840;2022-07-23T02:58:34;35.35;;;18.80;;
18082;SDS011;9168;51.194;6.840;2022-07-23T03:01:01;30.98;;;17.90;;
18082;SDS011;9168;51.194;6.840;2022-07-23T03:03:28;27.35;;;17.38;;
18082;SDS011;9168;51.194;6.840;2022-07-23T03:05:56;30.05;;;19.55;;
18082;SDS011;9168;51.194;6.840;2022-07-23T03:08:23;28.42;;;18.42;;
18082;SDS011;9168;51.194;6.840;2022-07-23T03:10:50;27.27;;;16.40;;
18082;SDS011;9168;51.194;6.840;2022-07-23T03:13:17;33.05;;;17.45;;
18082;SDS011;9168;51.194;6.840;2022-07-23T03:15:44;31.23;;;18.05;;
18082;SDS011;9168;51.194;6.840;2022-07-23T03:18:11;31.73;;;19.48;;
18082;SDS011;9168;51.194;6.840;2022-07-23T03:20:37;34.45;;;18.80;;
18082;SDS011;9168;51.194;6.840;2022-07-23T03:23:06;33.35;;;19.33;;
18082;SDS011;9168;51.194;6.840;2022-07-23T03:25:33;28.33;;;18.10;;
18082;SDS011;9168;51.194;6.840;2022-07-23T03:27:59;28.13;;;17.33;;
18082;SDS011;9168;51.194;6.840;2022-07-23T03:30:26;30.60;;;17.63;;
18082;SDS011;9168;51.194;6.840;2022-07-23T03:32:53;34.50;;;17.55;;
18082;SDS011;9168;51.194;6.840;2022-07-23T03:35:20;33.95;;;17.95;;
18082;SDS011;9168;51.194;6.840;2022-07-23T03:37:47;29.80;;;18.27;;
18082;SDS011;9168;51.194;6.840;2022-07-23T03:40:15;33.78;;;18.50;;
18082;SDS011;9168;51.194;6.840;2022-07-23T03:42:42;29.70;;;17.08;;
18082;SDS011;9168;51.194;6.840;2022-07-23T03:45:10;29.15;;;17.33;;
18082;SDS011;9168;51.194;6.840;2022-07-23T03:47:37;32.90;;;18.20;;
18082;SDS011;9168;51.194;6.840;2022-07-23T03:50:05;30.50;;;18.27;;
18082;SDS011;9168;51.194;6.840;2022-07-23T03:52:33;27.83;;;17.42;;
18082;SDS011;9168;51.194;6.840;2022-07-23T03:55:00;30.55;;;17.83;;
18082;SDS011;9168;51.194;6.840;2022-07-23T03:57:28;29.10;;;16.75;;
18082;SDS011;9168;51.194;6.840;2022-07-23T03:59:56;36.72;;;17.70;;
18082;SDS011;9168;51.194;6.840;2022-07-23T04:02:22;31.48;;;17.63;;
18082;SDS011;9168;51.194;6.840;2022-07-23T04:04:50;28.17;;;16.95;;
18082;SDS011;9168;51.194;6.840;2022-07-23T04:07:18;27.13;;;17.40;;
18082;SDS011;9168;51.194;6.840;2022-07-23T04:09:45;34.38;;;18.23;;
18082;SDS011;9168;51.194;6.840;2022-07-23T04:12:12;37.42;;;18.08;;
18082;SDS011;9168;51.194;6.840;2022-07-23T04:14:40;34.88;;;18.35;;
18082;SDS011;9168;51.194;6.840;2022-07-23T04:17:07;35.28;;;18.70;;
18082;SDS011;9168;51.194;6.840;2022-07-23T04:19:34;34.28;;;18.80;;
18082;SDS011;9168;51.194;6.840;2022-07-23T04:22:04;33.80;;;18.88;;
18082;SDS011;9168;51.194;6.840;2022-07-23T04:24:31;35.88;;;18.63;;
18082;SDS011;9168;51.194;6.840;2022-07-23T04:26:58;37.08;;;18.33;;
18082;SDS011;9168;51.194;6.840;2022-07-23T04:29:25;35.53;;;18.55;;
18082;SDS011;9168;51.194;6.840;2022-07-23T04:31:54;33.55;;;18.88;;
18082;SDS011;9168;51.194;6.840;2022-07-23T04:34:20;32.63;;;17.40;;
18082;SDS011;9168;51.194;6.840;2022-07-23T04:36:47;35.88;;;19.35;;
18082;SDS011;9168;51.194;6.840;2022-07-23T04:39:14;29.10;;;18.33;;
18082;SDS011;9168;51.194;6.840;2022-07-23T04:41:41;34.45;;;19.92;;
18082;SDS011;9168;51.194;6.840;2022-07-23T04:44:08;46.80;;;20.30;;
18082;SDS011;9168;51.194;6.840;2022-07-23T04:46:35;30.92;;;19.55;;
18082;SDS011;9168;51.194;6.840;2022-07-23T04:49:03;35.42;;;20.35;;
18082;SDS011;9168;51.194;6.840;2022-07-23T04:51:30;39.63;;;20.08;;
18082;SDS011;9168;51.194;6.840;2022-07-23T04:53:57;31.60;;;18.35;;
18082;SDS011;9168;51.194;6.840;2022-07-23T04:56:24;31.95;;;18.85;;
18082;SDS011;9168;51.194;6.840;2022-07-23T04:58:50;36.20;;;19.50;;
18082;SDS011;9168;51.194;6.840;2022-07-23T05:01:17;29.70;;;18.10;;
18082;SDS011;9168;51.194;6.840;2022-07-23T05:03:44;33.70;;;20.27;;
18082;SDS011;9168;51.194;6.840;2022-07-23T05:06:14;30.17;;;18.80;;
18082;SDS011;9168;51.194;6.840;2022-07-23T05:08:41;27.45;;;17.95;;
18082;SDS011;9168;51.194;6.840;2022-07-23T05:11:08;35.05;;;20.48;;
18082;SDS011;9168;51.194;6.840;2022-07-23T05:13:35;31.20;;;19.55;;
18082;SDS011;9168;51.194;6.840;2022-07-23T05:16:02;42.03;;;20.65;;
18082;SDS011;9168;51.194;6.840;2022-07-23T05:18:29;35.47;;;20.20;;
18082;SDS011;9168;51.194;6.840;2022-07-23T05:20:56;32.90;;;19.35;;
18082;SDS011;9168;51.194;6.840;2022-07-23T05:23:24;33.60;;;19.75;;
18082;SDS011;9168;51.194;6.840;2022-07-23T05:25:51;33.47;;;20.15;;
18082;SDS011;9168;51.194;6.840;2022-07-23T05:28:18;33.60;;;20.40;;
18082;SDS011;9168;51.194;6.840;2022-07-23T05:30:45;43.00;;;19.73;;
18082;SDS011;9168;51.194;6.840;2022-07-23T05:33:12;38.03;;;20.35;;
18082;SDS011;9168;51.194;6.840;2022-07-23T05:35:39;36.13;;;20.45;;
18082;SDS011;9168;51.194;6.840;2022-07-23T05:38:05;38.78;;;20.05;;
18082;SDS011;9168;51.194;6.840;2022-07-23T05:40:34;33.08;;;19.95;;
18082;SDS011;9168;51.194;6.840;2022-07-23T05:43:01;34.75;;;19.70;;
18082;SDS011;9168;51.194;6.840;2022-07-23T05:45:27;39.70;;;20.02;;
18082;SDS011;9168;51.194;6.840;2022-07-23T05:47:54;30.73;;;19.33;;
18082;SDS011;9168;51.194;6.840;2022-07-23T05:50:21;36.72;;;20.02;;
18082;SDS011;9168;51.194;6.840;2022-07-23T05:52:48;39.28;;;20.88;;
18082;SDS011;9168;51.194;6.840;2022-07-23T05:55:15;43.60;;;22.20;;
18082;SDS011;9168;51.194;6.840;2022-07-23T05:57:43;39.20;;;21.08;;
18082;SDS011;9168;51.194;6.840;2022-07-23T06:00:10;34.65;;;18.88;;
18082;SDS011;9168;51.194;6.840;2022-07-23T06:02:38;38.55;;;20.65;;
18082;SDS011;9168;51.194;6.840;2022-07-23T06:05:05;33.08;;;20.48;;
18082;SDS011;9168;51.194;6.840;2022-07-23T06:07:34;38.55;;;21.33;;
18082;SDS011;9168;51.194;6.840;2022-07-23T06:10:01;33.67;;;19.25;;
18082;SDS011;9168;51.194;6.840;2022-07-23T06:12:29;31.17;;;18.65;;
18082;SDS011;9168;51.194;6.840;2022-07-23T06:14:57;35.28;;;18.95;;
18082;SDS011;9168;51.194;6.840;2022-07-23T06:17:24;36.45;;;19.38;;
18082;SDS011;9168;51.194;6.840;2022-07-23T06:19:51;36.47;;;20.13;;
18082;SDS011;9168;51.194;6.840;2022-07-23T06:22:18;39.58;;;20.02;;
18082;SDS011;9168;51.194;6.840;2022-07-23T06:24:46;34.95;;;19.13;;
18082;SDS011;9168;51.194;6.840;2022-07-23T06:27:13;29.13;;;18.42;;
18082;SDS011;9168;51.194;6.840;2022-07-23T06:29:39;42.53;;;18.90;;
18082;SDS011;9168;51.194;6.840;2022-07-23T06:32:08;33.75;;;17.42;;
18082;SDS011;9168;51.194;6.840;2022-07-23T06:34:35;31.70;;;19.13;;
18082;SDS011;9168;51.194;6.840;2022-07-23T06:37:02;31.23;;;19.20;;
18082;SDS011;9168;51.194;6.840;2022-07-23T06:39:29;33.00;;;18.63;;
18082;SDS011;9168;51.194;6.840;2022-07-23T06:41:56;34.58;;;19.88;;
18082;SDS011;9168;51.194;6.840;2022-07-23T06:44:23;37.08;;;20.85;;
18082;SDS011;9168;51.194;6.840;2022-07-23T06:46:49;34.85;;;19.70;;
18082;SDS011;9168;51.194;6.840;2022-07-23T06:49:18;31.73;;;18.48;;
18082;SDS011;9168;51.194;6.840;2022-07-23T06:51:45;39.75;;;20.27;;
18082;SDS011;9168;51.194;6.840;2022-07-23T06:54:12;33.15;;;19.30;;
18082;SDS011;9168;51.194;6.840;2022-07-23T06:56:39;36.78;;;20.55;;
18082;SDS011;9168;51.194;6.840;2022-07-23T06:59:06;30.80;;;18.50;;
18082;SDS011;9168;51.194;6.840;2022-07-23T07:01:33;35.83;;;18.63;;
18082;SDS011;9168;51.194;6.840;2022-07-23T07:04:00;32.25;;;20.58;;
18082;SDS011;9168;51.194;6.840;2022-07-23T07:06:28;32.65;;;18.70;;
18082;SDS011;9168;51.194;6.840;2022-07-23T07:08:55;32.80;;;18.90;;
18082;SDS011;9168;51.194;6.840;2022-07-23T07:11:22;34.72;;;19.85;;
18082;SDS011;9168;51.194;6.840;2022-07-23T07:13:50;32.58;;;19.27;;
18082;SDS011;9168;51.194;6.840;2022-07-23T07:16:17;34.65;;;19.23;;
18082;SDS011;9168;51.194;6.840;2022-07-23T07:18:44;38.70;;;21.25;;
18082;SDS011;9168;51.194;6.840;2022-07-23T07:21:11;45.63;;;23.77;;
18082;SDS011;9168;51.194;6.840;2022-07-23T07:23:39;37.22;;;22.42;;
18082;SDS011;9168;51.194;6.840;2022-07-23T07:26:06;38.40;;;22.15;;
18082;SDS011;9168;51.194;6.840;2022-07-23T07:28:33;36.72;;;21.08;;
18082;SDS011;9168;51.194;6.840;2022-07-23T07:31:00;35.45;;;19.15;;
18082;SDS011;9168;51.194;6.840;2022-07-23T07:33:28;28.95;;;18.40;;
18082;SDS011;9168;51.194;6.840;2022-07-23T07:35:55;41.63;;;22.42;;
18082;SDS011;9168;51.194;6.840;2022-07-23T07:38:21;48.40;;;24.83;;
18082;SDS011;9168;51.194;6.840;2022-07-23T07:40:50;46.25;;;24.02;;
18082;SDS011;9168;51.194;6.840;2022-07-23T07:43:17;53.22;;;26.98;;
18082;SDS011;9168;51.194;6.840;2022-07-23T07:45:44;45.05;;;22.73;;
18082;SDS011;9168;51.194;6.840;2022-07-23T07:48:11;42.70;;;22.85;;
18082;SDS011;9168;51.194;6.840;2022-07-23T07:50:38;37.55;;;21.98;;
18082;SDS011;9168;51.194;6.840;2022-07-23T07:53:05;30.50;;;19.83;;
18082;SDS011;9168;51.194;6.840;2022-07-23T07:55:31;31.90;;;18.40;;
18082;SDS011;9168;51.194;6.840;2022-07-23T07:58:00;35.28;;;18.67;;
18082;SDS011;9168;51.194;6.840;2022-07-23T08:00:27;38.65;;;19.20;;
18082;SDS011;9168;51.194;6.840;2022-07-23T08:02:54;33.05;;;19.63;;
18082;SDS011;9168;51.194;6.840;2022-07-23T08:05:22;37.92;;;24.33;;
18082;SDS011;9168;51.194;6.840;2022-07-23T08:07:50;46.33;;;27.05;;
18082;SDS011;9168;51.194;6.840;2022-07-23T08:10:17;42.67;;;24.25;;
18082;SDS011;9168;51.194;6.840;2022-07-23T08:12:44;44.80;;;25.38;;
18082;SDS011;9168;51.194;6.840;2022-07-23T08:15:14;40.60;;;22.23;;
18082;SDS011;9168;51.194;6.840;2022-07-23T08:17:42;46.95;;;25.98;;
18082;SDS011;9168;51.194;6.840;2022-07-23T08:20:10;44.75;;;24.73;;
18082;SDS011;9168;51.194;6.840;2022-07-23T08:22:42;41.17;;;26.60;;
18082;SDS011;9168;51.194;6.840;2022-07-23T08:25:13;38.55;;;25.63;;
18082;SDS011;9168;51.194;6.840;2022-07-23T08:27:40;37.53;;;25.63;;
18082;SDS011;9168;51.194;6.840;2022-07-23T08:30:07;38.85;;;24.60;;
18082;SDS011;9168;51.194;6.840;2022-07-23T08:32:49;43.95;;;25.80;;
18082;SDS011;9168;51.194;6.840;2022-07-23T08:35:18;40.45;;;27.08;;
18082;SDS011;9168;51.194;6.840;2022-07-23T08:37:50;44.17;;;29.95;;
18082;SDS011;9168;51.194;6.840;2022-07-23T08:40:17;44.40;;;31.67;;
18082;SDS011;9168;51.194;6.840;2022-07-23T08:42:46;44.65;;;29.83;;
18082;SDS011;9168;51.194;6.840;2022-07-23T08:45:15;38.65;;;25.20;;
18082;SDS011;9168;51.194;6.840;2022-07-23T08:47:44;35.83;;;24.55;;
18082;SDS011;9168;51.194;6.840;2022-07-23T08:50:15;36.83;;;25.85;;
18082;SDS011;9168;51.194;6.840;2022-07-23T08:52:42;41.00;;;27.45;;
18082;SDS011;9168;51.194;6.840;2022-07-23T08:55:09;36.85;;;23.80;;
18082;SDS011;9168;51.194;6.840;2022-07-23T08:57:36;39.80;;;27.50;;
18082;SDS011;9168;51.194;6.840;2022-07-23T09:00:04;35.85;;;25.27;;
18082;SDS011;9168;51.194;6.840;2022-07-23T09:02:37;37.97;;;29.88;;
18082;SDS011;9168;51.194;6.840;2022-07-23T09:05:05;40.92;;;28.13;;
18082;SDS011;9168;51.194;6.840;2022-07-23T09:07:35;37.50;;;27.67;;
18082;SDS011;9168;51.194;6.840;2022-07-23T09:10:06;37.83;;;25.70;;
18082;SDS011;9168;51.194;6.840;2022-07-23T09:12:34;35.45;;;24.02;;
18082;SDS011;9168;51.194;6.840;2022-07-23T09:15:05;30.92;;;23.10;;
18082;SDS011;9168;51.194;6.840;2022-07-23T09:17:36;35.65;;;24.65;;
18082;SDS011;9168;51.194;6.840;2022-07-23T09:20:08;36.97;;;25.88;;
18082;SDS011;9168;51.194;6.840;2022-07-23T09:22:38;36.20;;;25.80;;
18082;SDS011;9168;51.194;6.840;2022-07-23T09:25:09;28.85;;;20.20;;
18082;SDS011;9168;51.194;6.840;2022-07-23T09:30:29;30.55;;;19.92;;
18082;SDS011;9168;51.194;6.840;2022-07-23T09:33:06;35.67;;;20.85;;
18082;SDS011;9168;51.194;6.840;2022-07-23T09:35:43;24.77;;;16.77;;
18082;SDS011;9168;51.194;6.840;2022-07-23T09:38:17;23.10;;;16.70;;
18082;SDS011;9168;51.194;6.840;2022-07-23T09:40:45;31.67;;;20.20;;
18082;SDS011;9168;51.194;6.840;2022-07-23T09:43:14;22.60;;;15.05;;
18082;SDS011;9168;51.194;6.840;2022-07-23T09:45:53;21.83;;;15.23;;
18082;SDS011;9168;51.194;6.840;2022-07-23T09:48:42;27.52;;;13.65;;
18082;SDS011;9168;51.194;6.840;2022-07-23T09:51:09;22.38;;;13.80;;
18082;SDS011;9168;51.194;6.840;2022-07-23T09:53:37;22.27;;;13.32;;
18082;SDS011;9168;51.194;6.840;2022-07-23T09:56:04;20.23;;;10.60;;
18082;SDS011;9168;51.194;6.840;2022-07-23T09:58:33;16.58;;;10.55;;
18082;SDS011;9168;51.194;6.840;2022-07-23T10:01:10;16.63;;;9.85;;
18082;SDS011;9168;51.194;6.840;2022-07-23T10:03:39;18.75;;;12.23;;
18082;SDS011;9168;51.194;6.840;2022-07-23T10:06:07;22.98;;;12.02;;
18082;SDS011;9168;51.194;6.840;2022-07-23T10:08:35;21.27;;;13.57;;
18082;SDS011;9168;51.194;6.840;2022-07-23T10:11:07;19.60;;;11.48;;
18082;SDS011;9168;51.194;6.840;2022-07-23T10:13:40;19.33;;;11.02;;
18082;SDS011;9168;51.194;6.840;2022-07-23T10:16:18;21.35;;;11.88;;
18082;SDS011;9168;51.194;6.840;2022-07-23T10:18:46;22.17;;;11.25;;
18082;SDS011;9168;51.194;6.840;2022-07-23T10:21:15;20.85;;;12.70;;
18082;SDS011;9168;51.194;6.840;2022-07-23T10:23:51;18.17;;;11.35;;
18082;SDS011;9168;51.194;6.840;2022-07-23T10:26:29;19.65;;;10.55;;
18082;SDS011;9168;51.194;6.840;2022-07-23T10:29:13;19.23;;;11.43;;
18082;SDS011;9168;51.194;6.840;2022-07-23T10:31:51;18.75;;;10.90;;
18082;SDS011;9168;51.194;6.840;2022-07-23T10:34:24;21.55;;;11.57;;
18082;SDS011;9168;51.194;6.840;2022-07-23T10:36:58;17.95;;;9.82;;
18082;SDS011;9168;51.194;6.840;2022-07-23T10:39:33;18.27;;;9.18;;
18082;SDS011;9168;51.194;6.840;2022-07-23T10:42:08;16.63;;;7.97;;
18082;SDS011;9168;51.194;6.840;2022-07-23T10:44:39;18.83;;;10.55;;
18082;SDS011;9168;51.194;6.840;2022-07-23T10:47:08;16.33;;;9.18;;
18082;SDS011;9168;51.194;6.840;2022-07-23T10:50:17;20.63;;;9.05;;
18082;SDS011;9168;51.194;6.840;2022-07-23T10:55:43;16.42;;;5.07;;
18082;SDS011;9168;51.194;6.840;2022-07-23T10:58:12;12.63;;;4.70;;
18082;SDS011;9168;51.194;6.840;2022-07-23T11:00:44;9.35;;;4.68;;
18082;SDS011;9168;51.194;6.840;2022-07-23T11:06:05;15.05;;;5.30;;
18082;SDS011;9168;51.194;6.840;2022-07-23T11:08:32;15.20;;;5.35;;
18082;SDS011;9168;51.194;6.840;2022-07-23T11:11:10;14.20;;;5.30;;
18082;SDS011;9168;51.194;6.840;2022-07-23T11:13:47;16.92;;;4.95;;
18082;SDS011;9168;51.194;6.840;2022-07-23T11:16:19;16.63;;;5.07;;
18082;SDS011;9168;51.194;6.840;2022-07-23T11:18:54;14.05;;;5.78;;
18082;SDS011;9168;51.194;6.840;2022-07-23T11:21:49;14.35;;;5.15;;
18082;SDS011;9168;51.194;6.840;2022-07-23T11:24:20;11.23;;;4.47;;
18082;SDS011;9168;51.194;6.840;2022-07-23T11:29:47;10.35;;;5.03;;
18082;SDS011;9168;51.194;6.840;2022-07-23T11:32:18;12.50;;;4.80;;
18082;SDS011;9168;51.194;6.840;2022-07-23T11:34:55;13.30;;;4.72;;
18082;SDS011;9168;51.194;6.840;2022-07-23T11:37:32;10.93;;;4.22;;
18082;SDS011;9168;51.194;6.840;2022-07-23T11:40:03;8.85;;;4.10;;
18082;SDS011;9168;51.194;6.840;2022-07-23T11:42:39;13.20;;;3.75;;
18082;SDS011;9168;51.194;6.840;2022-07-23T11:45:18;15.88;;;4.68;;
18082;SDS011;9168;51.194;6.840;2022-07-23T11:47:45;8.35;;;3.65;;
18082;SDS011;9168;51.194;6.840;2022-07-23T11:50:12;12.57;;;4.18;;
18082;SDS011;9168;51.194;6.840;2022-07-23T11:52:39;9.93;;;4.15;;
18082;SDS011;9168;51.194;6.840;2022-07-23T11:55:06;10.82;;;4.10;;
18082;SDS011;9168;51.194;6.840;2022-07-23T11:57:36;9.68;;;4.70;;
18082;SDS011;9168;51.194;6.840;2022-07-23T12:00:07;9.18;;;4.43;;
18082;SDS011;9168;51.194;6.840;2022-07-23T12:02:36;9.30;;;4.43;;
18082;SDS011;9168;51.194;6.840;2022-07-23T12:05:04;10.23;;;4.22;;
18082;SDS011;9168;51.194;6.840;2022-07-23T12:07:32;8.25;;;4.15;;
18082;SDS011;9168;51.194;6.840;2022-07-23T12:10:02;8.70;;;3.83;;
18082;SDS011;9168;51.194;6.840;2022-07-23T12:12:36;14.45;;;4.55;;
18082;SDS011;9168;51.194;6.840;2022-07-23T12:15:06;9.60;;;3.97;;
18082;SDS011;9168;51.194;6.840;2022-07-23T12:17:35;8.43;;;3.97;;
18082;SDS011;9168;51.194;6.840;2022-07-23T12:20:04;7.93;;;4.03;;
18082;SDS011;9168;51.194;6.840;2022-07-23T12:22:36;11.38;;;4.60;;
18082;SDS011;9168;51.194;6.840;2022-07-23T12:25:04;8.90;;;4.28;;
18082;SDS011;9168;51.194;6.840;2022-07-23T12:27:34;10.60;;;4.30;;
18082;SDS011;9168;51.194;6.840;2022-07-23T12:30:22;12.20;;;5.05;;
18082;SDS011;9168;51.194;6.840;2022-07-23T12:32:52;10.40;;;4.15;;
18082;SDS011;9168;51.194;6.840;2022-07-23T12:35:20;9.85;;;4.28;;
18082;SDS011;9168;51.194;6.840;2022-07-23T12:37:49;14.05;;;4.70;;
18082;SDS011;9168;51.194;6.840;2022-07-23T12:40:28;12.85;;;4.40;;
18082;SDS011;9168;51.194;6.840;2022-07-23T12:42:58;9.75;;;4.68;;
18082;SDS011;9168;51.194;6.840;2022-07-23T12:45:27;8.80;;;4.28;;
18082;SDS011;9168;51.194;6.840;2022-07-23T12:48:08;9.60;;;4.57;;
18082;SDS011;9168;51.194;6.840;2022-07-23T12:50:48;11.93;;;5.00;;
18082;SDS011;9168;51.194;6.840;2022-07-23T12:53:17;8.25;;;4.20;;
18082;SDS011;9168;51.194;6.840;2022-07-23T12:55:46;7.80;;;3.70;;
18082;SDS011;9168;51.194;6.840;2022-07-23T12:58:15;10.85;;;4.03;;
18082;SDS011;9168;51.194;6.840;2022-07-23T13:00:55;10.35;;;4.00;;
18082;SDS011;9168;51.194;6.840;2022-07-23T13:03:28;7.40;;;3.60;;
18082;SDS011;9168;51.194;6.840;2022-07-23T13:05:57;9.23;;;3.92;;
18082;SDS011;9168;51.194;6.840;2022-07-23T13:08:29;8.35;;;3.42;;
18082;SDS011;9168;51.194;6.840;2022-07-23T13:10:57;8.73;;;3.80;;
18082;SDS011;9168;51.194;6.840;2022-07-23T13:13:25;7.10;;;3.95;;
18082;SDS011;9168;51.194;6.840;2022-07-23T13:15:56;6.70;;;3.83;;
18082;SDS011;9168;51.194;6.840;2022-07-23T13:18:24;11.18;;;4.50;;
18082;SDS011;9168;51.194;6.840;2022-07-23T13:20:51;7.15;;;4.20;;
18082;SDS011;9168;51.194;6.840;2022-07-23T13:23:18;8.20;;;3.50;;
18082;SDS011;9168;51.194;6.840;2022-07-23T13:25:46;7.53;;;3.55;;
18082;SDS011;9168;51.194;6.840;2022-07-23T13:28:13;6.75;;;3.70;;
18082;SDS011;9168;51.194;6.840;2022-07-23T13:30:42;6.57;;;3.50;;
18082;SDS011;9168;51.194;6.840;2022-07-23T13:33:11;7.03;;;3.28;;
18082;SDS011;9168;51.194;6.840;2022-07-23T13:35:38;6.75;;;3.50;;
18082;SDS011;9168;51.194;6.840;2022-07-23T13:38:05;9.90;;;3.72;;
18082;SDS011;9168;51.194;6.840;2022-07-23T13:40:34;6.90;;;3.38;;
18082;SDS011;9168;51.194;6.840;2022-07-23T13:43:03;7.03;;;3.33;;
18082;SDS011;9168;51.194;6.840;2022-07-23T13:45:31;5.63;;;3.03;;
18082;SDS011;9168;51.194;6.840;2022-07-23T13:47:58;8.30;;;3.20;;
18082;SDS011;9168;51.194;6.840;2022-07-23T13:50:26;6.28;;;2.85;;
18082;SDS011;9168;51.194;6.840;2022-07-23T13:52:53;6.65;;;3.17;;
18082;SDS011;9168;51.194;6.840;2022-07-23T13:55:20;5.10;;;3.13;;
18082;SDS011;9168;51.194;6.840;2022-07-23T13:57:47;5.72;;;3.00;;
18082;SDS011;9168;51.194;6.840;2022-07-23T14:00:14;7.80;;;3.30;;
18082;SDS011;9168;51.194;6.840;2022-07-23T14:02:41;7.47;;;3.60;;
18082;SDS011;9168;51.194;6.840;2022-07-23T14:05:10;7.85;;;3.60;;
18082;SDS011;9168;51.194;6.840;2022-07-23T14:07:39;6.38;;;2.95;;
18082;SDS011;9168;51.194;6.840;2022-07-23T14:10:08;3.60;;;2.90;;
18082;SDS011;9168;51.194;6.840;2022-07-23T14:12:35;8.20;;;3.70;;
18082;SDS011;9168;51.194;6.840;2022-07-23T14:15:03;5.88;;;3.30;;
18082;SDS011;9168;51.194;6.840;2022-07-23T14:17:31;8.00;;;3.17;;
18082;SDS011;9168;51.194;6.840;2022-07-23T14:19:58;7.13;;;3.20;;
18082;SDS011;9168;51.194;6.840;2022-07-23T14:22:25;5.45;;;3.28;;
18082;SDS011;9168;51.194;6.840;2022-07-23T14:24:54;7.72;;;3.50;;
18082;SDS011;9168;51.194;6.840;2022-07-23T14:27:22;7.20;;;3.17;;
18082;SDS011;9168;51.194;6.840;2022-07-23T14:29:49;7.45;;;3.60;;
18082;SDS011;9168;51.194;6.840;2022-07-23T14:32:32;8.57;;;3.22;;
18082;SDS011;9168;51.194;6.840;2022-07-23T14:35:14;3.28;;;2.95;;
18082;SDS011;9168;51.194;6.840;2022-07-23T14:37:50;13.35;;;3.92;;
18082;SDS011;9168;51.194;6.840;2022-07-23T14:40:20;8.60;;;3.08;;
18082;SDS011;9168;51.194;6.840;2022-07-23T14:42:48;9.10;;;3.42;;
18082;SDS011;9168;51.194;6.840;2022-07-23T14:45:16;9.35;;;3.83;;
18082;SDS011;9168;51.194;6.840;2022-07-23T14:47:43;6.65;;;3.00;;
18082;SDS011;9168;51.194;6.840;2022-07-23T14:50:10;4.47;;;3.08;;
18082;SDS011;9168;51.194;6.840;2022-07-23T14:52:37;5.20;;;3.13;;
18082;SDS011;9168;51.194;6.840;2022-07-23T14:55:04;3.28;;;2.70;;
18082;SDS011;9168;51.194;6.840;2022-07-23T14:57:33;6.05;;;3.22;;
18082;SDS011;9168;51.194;6.840;2022-07-23T15:00:00;3.50;;;3.00;;
18082;SDS011;9168;51.194;6.840;2022-07-23T15:02:27;4.97;;;2.78;;